Time;durP1;ratioP1;P1;durP2;ratioP2;P2;SDS_P1;SDS_P2;PMS_P1;PMS_P2;Temp;Humidity;BMP_temperature;BMP_pressure;BME280_temperature;BME280_humidity;BME280_pressure;Samples;Min_cycle;Max_cycle;Signal;HPM_P1;HPM_P2
2024/01/04 00:00:31;;;;;;;;;2.00;2.00;;;;;-144.62;100.00;60556.56;5041437;28;45470;-77
2024/01/04 00:02:56;;;;;;;;;2.00;1.00;;;;;-144.62;100.00;60556.56;5038181;28;45267;-77
2024/01/04 00:05:22;;;;;;;;;3.00;1.33;;;;;-144.62;100.00;60556.56;5035363;28;45764;-77
2024/01/04 00:17:53;;;;;;;;;2.33;1.33;;;;;-144.62;100.00;60556.56;5035909;28;45347;-77
2024/01/04 00:20:18;;;;;;;;;3.67;2.00;;;;;-144.62;100.00;60556.56;5040030;28;45211;-77
2024/01/04 00:22:43;;;;;;;;;1.67;1.67;;;;;-144.62;100.00;60556.56;5036133;28;46419;-77
2024/01/04 00:25:09;;;;;;;;;3.00;1.00;;;;;-144.62;100.00;60556.56;5040296;28;58998;-77
2024/01/04 00:27:35;;;;;;;;;3.00;2.00;;;;;-144.62;100.00;60556.56;5039723;28;45303;-77
2024/01/04 00:30:00;;;;;;;;;1.67;1.67;;;;;-144.62;100.00;60556.56;5039325;28;45569;-77
2024/01/04 00:32:26;;;;;;;;;0.00;0.00;;;;;-144.62;100.00;60556.56;5034807;27;46868;-77
2024/01/04 00:34:51;;;;;;;;;5.00;2.00;;;;;-144.62;100.00;60556.56;5031723;28;45203;-77
2024/01/04 00:37:17;;;;;;;;;1.33;1.33;;;;;-144.62;100.00;60556.56;5035721;28;45443;-76
2024/01/04 00:39:42;;;;;;;;;1.00;1.00;;;;;-144.62;100.00;60556.56;5038240;27;45439;-77
2024/01/04 00:42:07;;;;;;;;;1.33;1.33;;;;;-144.62;100.00;60556.56;5038529;28;46414;-77
2024/01/04 00:44:33;;;;;;;;;1.00;1.00;;;;;-144.62;100.00;60556.56;5037577;28;45377;-77
2024/01/04 00:46:58;;;;;;;;;1.00;1.00;;;;;-144.62;100.00;60556.56;5040001;28;45490;-77
2024/01/04 00:49:23;;;;;;;;;2.33;2.33;;;;;-144.62;100.00;60556.56;5034306;27;45419;-77
2024/01/04 00:51:49;;;;;;;;;2.00;0.33;;;;;-144.62;100.00;60556.56;5037965;28;64309;-77
2024/01/04 00:54:14;;;;;;;;;4.33;4.33;;;;;-144.62;100.00;60556.56;5040470;28;45437;-77
2024/01/04 00:56:39;;;;;;;;;1.00;1.00;;;;;-144.62;100.00;60556.56;5038975;28;45321;-77
2024/01/04 00:59:05;;;;;;;;;5.00;2.00;;;;;-144.62;100.00;60556.56;5034968;27;45637;-77
2024/01/04 01:01:34;;;;;;;;;5.00;3.33;;;;;-144.62;100.00;60556.56;5039156;28;46726;-77
2024/01/04 01:04:02;;;;;;;;;2.33;2.00;;;;;-144.62;100.00;60556.56;5036894;28;45430;-76
2024/01/04 01:06:27;;;;;;;;;6.33;3.00;;;;;-144.62;100.00;60556.56;5037890;28;45575;-77
2024/01/04 01:08:53;;;;;;;;;1.33;0.67;;;;;-144.62;100.00;60556.56;5040092;27;45338;-77
2024/01/04 01:11:18;;;;;;;;;2.67;2.00;;;;;-144.62;100.00;60556.56;5037854;27;46789;-77
2024/01/04 01:13:43;;;;;;;;;4.00;2.00;;;;;-144.62;100.00;60556.56;5034252;28;45328;-77
2024/01/04 01:16:10;;;;;;;;;3.00;2.33;;;;;-144.62;100.00;60556.56;5036134;28;45391;-77
2024/01/04 01:18:35;;;;;;;;;2.00;1.00;;;;;-144.62;100.00;60556.56;5044430;27;45455;-77
2024/01/04 01:21:01;;;;;;;;;3.00;2.00;;;;;-144.62;100.00;60556.56;5038278;28;50372;-77
2024/01/04 01:23:27;;;;;;;;;3.00;1.33;;;;;-144.62;100.00;60556.56;5036617;28;45332;-77
2024/01/04 01:25:53;;;;;;;;;1.00;1.00;;;;;-144.62;100.00;60556.56;5036158;28;45871;-77
2024/01/04 01:28:18;;;;;;;;;1.00;1.00;;;;;-144.62;100.00;60556.56;5038976;28;45574;-77
2024/01/04 01:30:43;;;;;;;;;6.00;3.00;;;;;-144.62;100.00;60556.56;5039027;28;46522;-77
2024/01/04 01:33:08;;;;;;;;;4.67;1.00;;;;;-144.62;100.00;60556.56;5030956;27;45393;-77
2024/01/04 01:35:34;;;;;;;;;1.33;1.00;;;;;-144.62;100.00;60556.56;5040200;28;45220;-77
2024/01/04 01:37:59;;;;;;;;;2.00;1.00;;;;;-144.62;100.00;60556.56;5039152;28;45237;-77
2024/01/04 01:40:24;;;;;;;;;4.00;1.00;;;;;-144.62;100.00;60556.56;5039680;28;46118;-77
2024/01/04 01:42:50;;;;;;;;;3.00;1.00;;;;;-144.62;100.00;60556.56;5038111;28;45453;-77
2024/01/04 01:45:16;;;;;;;;;3.33;3.33;;;;;-144.62;100.00;60556.56;5040104;28;45305;-77
2024/01/04 01:47:45;;;;;;;;;8.00;3.00;;;;;-144.62;100.00;60556.56;5033129;28;45372;-77
2024/01/04 01:50:10;;;;;;;;;2.67;2.00;;;;;-144.62;100.00;60556.56;5037525;27;45404;-77
2024/01/04 01:52:36;;;;;;;;;1.33;1.00;;;;;-144.62;100.00;60556.56;5033503;28;45450;-77
2024/01/04 01:55:03;;;;;;;;;2.67;0.67;;;;;-144.62;100.00;60556.56;5036194;28;45323;-77
2024/01/04 01:57:31;;;;;;;;;1.67;1.00;;;;;-144.62;100.00;60556.56;5033606;27;45399;-77
2024/01/04 01:59:57;;;;;;;;;5.33;1.00;;;;;-144.62;100.00;60556.56;5025424;27;46188;-77
2024/01/04 02:02:23;;;;;;;;;11.67;3.00;;;;;-144.62;100.00;60556.56;5034630;28;47315;-77
2024/01/04 02:04:48;;;;;;;;;3.33;1.00;;;;;-144.62;100.00;60556.56;5028921;28;45317;-77
2024/01/04 02:07:14;;;;;;;;;4.33;1.67;;;;;-144.62;100.00;60556.56;5037390;28;45600;-77
2024/01/04 02:09:39;;;;;;;;;3.33;2.00;;;;;-144.62;100.00;60556.56;5021142;27;45672;-77
2024/01/04 02:12:05;;;;;;;;;1.33;1.33;;;;;-144.62;100.00;60556.56;5032619;28;45521;-77
2024/01/04 02:14:31;;;;;;;;;4.00;1.00;;;;;-144.62;100.00;60556.56;5037932;28;45357;-77
2024/01/04 02:16:56;;;;;;;;;1.00;1.00;;;;;-144.62;100.00;60556.56;5039604;28;45581;-77
2024/01/04 02:19:24;;;;;;;;;1.67;1.00;;;;;-144.62;100.00;60556.56;5032428;28;45478;-77
2024/01/04 02:21:49;;;;;;;;;3.33;0.00;;;;;-144.62;100.00;60556.56;5039148;28;48827;-77
2024/01/04 02:24:14;;;;;;;;;3.67;0.33;;;;;-144.62;100.00;60556.56;5037929;28;50046;-77
2024/01/04 02:26:40;;;;;;;;;9.00;2.00;;;;;-144.62;100.00;60556.56;5039443;27;45578;-77
2024/01/04 02:29:05;;;;;;;;;4.00;2.00;;;;;-144.62;100.00;60556.56;5034221;28;54872;-77
2024/01/04 02:31:30;;;;;;;;;2.00;1.00;;;;;-144.62;100.00;60556.56;5039164;28;45228;-77
2024/01/04 02:33:56;;;;;;;;;3.00;1.00;;;;;-144.62;100.00;60556.56;5035167;28;45166;-77
2024/01/04 02:36:21;;;;;;;;;3.67;2.00;;;;;-144.62;100.00;60556.56;5038229;28;45568;-77
2024/01/04 02:38:46;;;;;;;;;5.00;2.00;;;;;-144.62;100.00;60556.56;5030576;28;46457;-77
2024/01/04 02:41:12;;;;;;;;;1.00;1.00;;;;;-144.62;100.00;60556.56;5038901;28;45380;-77
2024/01/04 02:43:37;;;;;;;;;2.67;1.33;;;;;-144.62;100.00;60556.56;5037391;28;45526;-77
2024/01/04 02:46:02;;;;;;;;;3.33;2.00;;;;;-144.62;100.00;60556.56;5038841;28;48453;-77
2024/01/04 02:48:28;;;;;;;;;0.00;0.00;;;;;-144.62;100.00;60556.56;5030196;28;45474;-77
2024/01/04 02:50:53;;;;;;;;;2.67;1.67;;;;;-144.62;100.00;60556.56;5038166;28;51477;-77
2024/01/04 02:53:18;;;;;;;;;1.00;1.00;;;;;-144.62;100.00;60556.56;5035895;28;45517;-77
2024/01/04 02:55:43;;;;;;;;;1.67;1.67;;;;;-144.62;100.00;60556.56;5039686;27;45422;-77
2024/01/04 02:58:09;;;;;;;;;0.67;0.67;;;;;-144.62;100.00;60556.56;5027348;28;47099;-77
2024/01/04 03:00:34;;;;;;;;;3.00;2.00;;;;;-144.62;100.00;60556.56;5029471;28;51787;-77
2024/01/04 03:02:59;;;;;;;;;3.00;1.00;;;;;-144.62;100.00;60556.56;5039244;27;45215;-77
2024/01/04 03:05:25;;;;;;;;;4.00;2.00;;;;;-144.62;100.00;60556.56;5032239;28;45309;-77
2024/01/04 03:07:50;;;;;;;;;1.33;1.00;;;;;-144.62;100.00;60556.56;5040282;27;45406;-77
2024/01/04 03:10:15;;;;;;;;;1.67;0.67;;;;;-144.62;100.00;60556.56;5032772;28;45409;-77
2024/01/04 03:12:41;;;;;;;;;2.67;1.00;;;;;-144.62;100.00;60556.56;5034437;28;45431;-77
2024/01/04 03:15:07;;;;;;;;;2.33;1.67;;;;;-144.62;100.00;60556.56;5032953;28;45468;-77
2024/01/04 03:17:32;;;;;;;;;4.00;1.00;;;;;-144.62;100.00;60556.56;5039781;28;47103;-77
2024/01/04 03:19:58;;;;;;;;;5.33;1.33;;;;;-144.62;100.00;60556.56;5034864;27;45238;-78
2024/01/04 03:22:23;;;;;;;;;4.00;2.00;;;;;-144.62;100.00;60556.56;5039939;28;45476;-77
2024/01/04 03:24:48;;;;;;;;;1.33;1.00;;;;;-144.62;100.00;60556.56;5045999;28;45405;-77
2024/01/04 03:27:14;;;;;;;;;1.00;1.00;;;;;-144.62;100.00;60556.56;5041368;27;46208;-77
2024/01/04 03:29:39;;;;;;;;;6.33;4.00;;;;;-144.62;100.00;60556.56;5040920;28;45352;-77
2024/01/04 03:32:05;;;;;;;;;2.00;0.00;;;;;-144.62;100.00;60556.56;5040114;28;45428;-77
2024/01/04 03:34:30;;;;;;;;;1.33;1.33;;;;;-144.62;100.00;60556.56;5034917;28;45293;-77
2024/01/04 03:36:56;;;;;;;;;3.00;1.00;;;;;-144.62;100.00;60556.56;5041179;27;46386;-77
2024/01/04 03:39:21;;;;;;;;;2.00;1.00;;;;;-144.62;100.00;60556.56;5040773;28;45328;-77
2024/01/04 03:41:46;;;;;;;;;5.00;3.00;;;;;-144.62;100.00;60556.56;5040755;28;45292;-77
2024/01/04 03:44:12;;;;;;;;;4.33;3.00;;;;;-144.62;100.00;60556.56;5039532;27;45234;-77
2024/01/04 03:46:37;;;;;;;;;3.67;2.33;;;;;-144.62;100.00;60556.56;5040482;28;45574;-77
2024/01/04 03:49:02;;;;;;;;;2.67;2.00;;;;;-144.62;100.00;60556.56;5031583;28;46206;-77
2024/01/04 03:51:27;;;;;;;;;9.00;2.00;;;;;-144.62;100.00;60556.56;5039909;28;45305;-77
2024/01/04 03:53:53;;;;;;;;;3.33;1.00;;;;;-144.62;100.00;60556.56;5032698;28;45355;-77
2024/01/04 03:56:18;;;;;;;;;1.00;1.00;;;;;-144.62;100.00;60556.56;5041740;28;46197;-77
2024/01/04 03:58:44;;;;;;;;;4.00;1.00;;;;;-144.62;100.00;60556.56;5039955;28;54300;-77
2024/01/04 04:01:09;;;;;;;;;2.00;2.00;;;;;-144.62;100.00;60556.56;5039755;28;45326;-78
2024/01/04 04:03:34;;;;;;;;;1.33;1.00;;;;;-144.62;100.00;60556.56;5040156;28;45560;-77
2024/01/04 04:06:06;;;;;;;;;1.33;1.33;;;;;-144.62;100.00;60556.56;5040497;28;45842;-77
2024/01/04 04:08:32;;;;;;;;;3.00;1.00;;;;;-144.62;100.00;60556.56;5039739;27;45281;-77
2024/01/04 04:10:57;;;;;;;;;6.00;2.00;;;;;-144.62;100.00;60556.56;5038701;28;49936;-77
2024/01/04 04:13:22;;;;;;;;;5.00;2.00;;;;;-144.62;100.00;60556.56;5037986;28;45481;-77
2024/01/04 04:15:48;;;;;;;;;6.67;2.67;;;;;-144.62;100.00;60556.56;5035605;28;55003;-78
2024/01/04 04:18:13;;;;;;;;;4.00;1.33;;;;;-144.62;100.00;60556.56;5037632;28;45404;-77
2024/01/04 04:20:39;;;;;;;;;0.67;0.67;;;;;-144.62;100.00;60556.56;5040210;28;45389;-77
2024/01/04 04:23:04;;;;;;;;;2.00;2.00;;;;;-144.62;100.00;60556.56;5036847;28;45349;-77
2024/01/04 04:25:30;;;;;;;;;1.00;1.00;;;;;-144.62;100.00;60556.56;5040889;28;45650;-77
2024/01/04 04:27:55;;;;;;;;;3.00;2.00;;;;;-144.62;100.00;60556.56;5040271;28;45306;-77
2024/01/04 04:30:21;;;;;;;;;1.33;1.00;;;;;-144.62;100.00;60556.56;5036289;28;45261;-78
2024/01/04 04:32:46;;;;;;;;;2.00;1.00;;;;;-144.62;100.00;60556.56;5039967;28;45365;-77
2024/01/04 04:35:12;;;;;;;;;9.00;3.00;;;;;-144.62;100.00;60556.56;5039465;28;46808;-77
2024/01/04 04:37:37;;;;;;;;;2.00;0.00;;;;;-144.62;100.00;60556.56;5034972;28;45413;-77
2024/01/04 04:40:03;;;;;;;;;3.67;2.67;;;;;-144.62;100.00;60556.56;5036147;28;45376;-77
2024/01/04 04:42:28;;;;;;;;;7.33;3.00;;;;;-144.62;100.00;60556.56;5036855;28;45398;-77
2024/01/04 04:44:54;;;;;;;;;2.33;2.00;;;;;-144.62;100.00;60556.56;5036054;28;45658;-76
2024/01/04 04:47:19;;;;;;;;;4.67;1.67;;;;;-144.62;100.00;60556.56;5037225;28;45343;-77
2024/01/04 04:49:44;;;;;;;;;8.67;3.00;;;;;-144.62;100.00;60556.56;5034967;28;45384;-76
2024/01/04 04:52:10;;;;;;;;;2.00;1.00;;;;;-144.62;100.00;60556.56;5036096;28;45441;-77
2024/01/04 04:54:35;;;;;;;;;3.00;2.33;;;;;-144.62;100.00;60556.56;5035563;28;45427;-77
2024/01/04 04:57:02;;;;;;;;;4.00;1.33;;;;;-144.62;100.00;60556.56;5034839;28;45250;-77
2024/01/04 04:59:28;;;;;;;;;4.00;2.00;;;;;-144.62;100.00;60556.56;5029331;28;45475;-77
2024/01/04 05:01:53;;;;;;;;;1.67;1.00;;;;;-144.62;100.00;60556.56;5035432;28;45380;-77
2024/01/04 05:04:19;;;;;;;;;4.00;2.33;;;;;-144.62;100.00;60556.56;5044346;28;48290;-76
2024/01/04 05:06:44;;;;;;;;;2.67;1.00;;;;;-144.62;100.00;60556.56;5038287;28;45532;-76
2024/01/04 05:09:09;;;;;;;;;3.00;2.67;;;;;-144.62;100.00;60556.56;5027049;27;45379;-76
2024/01/04 05:11:35;;;;;;;;;3.33;3.33;;;;;-144.62;100.00;60556.56;5040789;27;45417;-76
2024/01/04 05:14:02;;;;;;;;;4.67;2.00;;;;;-144.62;100.00;60556.56;5032485;28;46520;-76
2024/01/04 05:16:27;;;;;;;;;2.00;2.00;;;;;-144.62;100.00;60556.56;5037223;28;46088;-76
2024/01/04 05:18:52;;;;;;;;;2.33;2.33;;;;;-144.62;100.00;60556.56;5029415;28;45299;-76
2024/01/04 05:21:18;;;;;;;;;2.67;1.00;;;;;-144.62;100.00;60556.56;5039769;27;45666;-76
2024/01/04 05:23:43;;;;;;;;;8.00;5.00;;;;;-144.62;100.00;60556.56;5034174;28;45391;-76
2024/01/04 05:26:19;;;;;;;;;9.33;4.00;;;;;-144.62;100.00;60556.56;5036771;28;54632;-76
2024/01/04 05:28:44;;;;;;;;;3.33;3.00;;;;;-144.62;100.00;60556.56;5037743;27;45342;-76
2024/01/04 05:31:09;;;;;;;;;4.67;3.67;;;;;-144.62;100.00;60556.56;5040316;28;45267;-76
2024/01/04 05:33:35;;;;;;;;;7.67;4.00;;;;;-144.62;100.00;60556.56;5038993;27;47020;-76
2024/01/04 05:36:00;;;;;;;;;7.33;2.00;;;;;-144.62;100.00;60556.56;5038484;28;46691;-76
2024/01/04 05:38:25;;;;;;;;;4.33;1.67;;;;;-144.62;100.00;60556.56;5038857;27;45419;-76
2024/01/04 05:40:51;;;;;;;;;10.00;4.33;;;;;-144.62;100.00;60556.56;5026361;27;45248;-76
2024/01/04 05:43:16;;;;;;;;;3.33;2.33;;;;;-144.62;100.00;60556.56;5030792;28;45518;-76
2024/01/04 05:45:41;;;;;;;;;7.00;3.33;;;;;-144.62;100.00;60556.56;5040114;28;45255;-76
2024/01/04 05:48:07;;;;;;;;;9.00;5.00;;;;;-144.62;100.00;60556.56;5041950;28;45337;-76
2024/01/04 05:50:32;;;;;;;;;2.33;2.33;;;;;-144.62;100.00;60556.56;5040483;28;45151;-76
2024/01/04 05:52:58;;;;;;;;;4.67;2.00;;;;;-144.62;100.00;60556.56;5033856;28;51244;-76
2024/01/04 05:55:23;;;;;;;;;4.00;2.00;;;;;-144.62;100.00;60556.56;5021312;28;45317;-76
2024/01/04 05:57:48;;;;;;;;;2.00;2.00;;;;;-144.62;100.00;60556.56;5025732;28;45473;-76
2024/01/04 06:00:14;;;;;;;;;6.33;3.00;;;;;-144.62;100.00;60556.56;5028054;27;45337;-76
2024/01/04 06:02:39;;;;;;;;;6.67;4.33;;;;;-144.62;100.00;60556.56;5033025;27;46599;-76
2024/01/04 06:05:05;;;;;;;;;3.67;3.67;;;;;-144.62;100.00;60556.56;5029100;27;45262;-76
2024/01/04 06:07:31;;;;;;;;;1.33;1.33;;;;;-144.62;100.00;60556.56;5038444;28;45307;-76
2024/01/04 06:09:56;;;;;;;;;3.33;3.00;;;;;-144.62;100.00;60556.56;5030122;27;45315;-75
2024/01/04 06:12:21;;;;;;;;;4.33;3.00;;;;;-144.62;100.00;60556.56;5036618;28;47221;-76
2024/01/04 06:14:49;;;;;;;;;4.00;4.00;;;;;-144.62;100.00;60556.56;5031675;28;45316;-76
2024/01/04 06:17:14;;;;;;;;;2.00;2.00;;;;;-144.62;100.00;60556.56;5038931;28;45384;-77
2024/01/04 06:19:40;;;;;;;;;6.00;2.33;;;;;-144.62;100.00;60556.56;5032817;28;45604;-76
2024/01/04 06:22:05;;;;;;;;;5.00;2.00;;;;;-144.62;100.00;60556.56;5037155;28;47153;-77
2024/01/04 06:24:30;;;;;;;;;7.33;2.00;;;;;-144.62;100.00;60556.56;5032455;27;45190;-77
2024/01/04 06:26:56;;;;;;;;;4.00;2.33;;;;;-144.62;100.00;60556.56;5038915;28;45211;-76
2024/01/04 06:29:21;;;;;;;;;5.00;4.00;;;;;-144.62;100.00;60556.56;5038059;27;45525;-76
2024/01/04 06:31:46;;;;;;;;;6.33;3.00;;;;;-144.62;100.00;60556.56;5038497;28;45400;-76
2024/01/04 06:34:12;;;;;;;;;2.00;2.00;;;;;-144.62;100.00;60556.56;5032730;27;45355;-76
2024/01/04 06:36:37;;;;;;;;;3.33;3.00;;;;;-144.62;100.00;60556.56;5039998;28;45265;-76
2024/01/04 06:39:03;;;;;;;;;2.00;2.00;;;;;-144.62;100.00;60556.56;5033232;28;45345;-76
2024/01/04 06:41:29;;;;;;;;;3.67;1.00;;;;;-144.62;100.00;60556.56;5040455;28;45976;-76
2024/01/04 06:43:56;;;;;;;;;4.00;4.00;;;;;-144.62;100.00;60556.56;5031222;27;45448;-75
2024/01/04 06:46:21;;;;;;;;;3.00;3.00;;;;;-144.62;100.00;60556.56;5040884;28;45443;-76
2024/01/04 06:48:47;;;;;;;;;7.00;4.67;;;;;-144.62;100.00;60556.56;5032751;28;45470;-76
2024/01/04 06:51:12;;;;;;;;;4.00;4.00;;;;;-144.62;100.00;60556.56;5040710;28;45659;-76
2024/01/04 06:53:38;;;;;;;;;3.67;2.67;;;;;-144.62;100.00;60556.56;5030256;28;45447;-76
2024/01/04 06:56:04;;;;;;;;;13.67;3.00;;;;;-144.62;100.00;60556.56;5033313;28;45277;-76
2024/01/04 06:58:29;;;;;;;;;4.00;3.33;;;;;-144.62;100.00;60556.56;5031967;28;45791;-76
2024/01/04 07:00:56;;;;;;;;;8.00;2.00;;;;;-144.62;100.00;60556.56;5033693;28;45398;-78
2024/01/04 07:03:21;;;;;;;;;4.00;3.00;;;;;-144.62;100.00;60556.56;5034900;28;45265;-77
2024/01/04 07:05:47;;;;;;;;;1.67;1.67;;;;;-144.62;100.00;60556.56;5033330;28;45352;-77
2024/01/04 07:08:12;;;;;;;;;4.67;2.00;;;;;-144.62;100.00;60556.56;5038932;27;45383;-79
2024/01/04 07:10:40;;;;;;;;;3.00;1.00;;;;;-144.62;100.00;60556.56;5033290;28;46552;-78
2024/01/04 07:13:06;;;;;;;;;5.33;3.33;;;;;-144.62;100.00;60556.56;5040785;27;45422;-76
2024/01/04 07:15:31;;;;;;;;;3.00;1.33;;;;;-144.62;100.00;60556.56;5031784;28;45508;-78
2024/01/04 07:17:56;;;;;;;;;2.00;1.00;;;;;-144.62;100.00;60556.56;5041025;28;45398;-77
2024/01/04 07:20:22;;;;;;;;;6.33;3.00;;;;;-144.62;100.00;60556.56;5035371;28;46076;-77
2024/01/04 07:22:48;;;;;;;;;3.33;1.33;;;;;-144.62;100.00;60556.56;5039902;28;52085;-77
2024/01/04 07:25:13;;;;;;;;;1.00;1.00;;;;;-144.62;100.00;60556.56;5036165;28;45431;-75
2024/01/04 07:27:38;;;;;;;;;3.67;2.67;;;;;-144.62;100.00;60556.56;5034870;27;45668;-78
2024/01/04 07:30:04;;;;;;;;;3.00;3.00;;;;;-144.62;100.00;60556.56;5045132;28;65353;-80
2024/01/04 07:32:29;;;;;;;;;2.00;1.00;;;;;-144.62;100.00;60556.56;5036094;27;45348;-77
2024/01/04 07:34:55;;;;;;;;;2.33;2.00;;;;;-144.62;100.00;60556.56;5035847;27;55516;-78
2024/01/04 07:37:20;;;;;;;;;4.00;3.00;;;;;-144.62;100.00;60556.56;5037984;28;45434;-78
2024/01/04 07:39:46;;;;;;;;;0.33;0.33;;;;;-144.62;100.00;60556.56;5035000;28;57409;-78
2024/01/04 07:42:11;;;;;;;;;2.33;2.00;;;;;-144.62;100.00;60556.56;5038562;28;60567;-78
2024/01/04 07:44:36;;;;;;;;;5.00;3.00;;;;;-144.62;100.00;60556.56;5033797;28;45658;-79
2024/01/04 07:47:02;;;;;;;;;4.33;2.00;;;;;-144.62;100.00;60556.56;5039402;28;45640;-79
2024/01/04 07:49:27;;;;;;;;;4.33;2.00;;;;;-144.62;100.00;60556.56;5041545;28;46055;-78
2024/01/04 07:51:53;;;;;;;;;6.33;2.33;;;;;-144.62;100.00;60556.56;5037334;28;45430;-78
2024/01/04 07:54:19;;;;;;;;;8.33;3.33;;;;;-144.62;100.00;60556.56;5040054;28;45317;-77
2024/01/04 07:56:44;;;;;;;;;4.00;3.67;;;;;-144.62;100.00;60556.56;5037485;28;45343;-78
2024/01/04 07:59:09;;;;;;;;;8.00;1.00;;;;;-144.62;100.00;60556.56;5030024;28;45440;-79
2024/01/04 08:01:35;;;;;;;;;5.67;3.00;;;;;-144.62;100.00;60556.56;5035135;28;45461;-79
2024/01/04 08:04:00;;;;;;;;;6.33;2.00;;;;;-144.62;100.00;60556.56;5033463;28;45446;-79
2024/01/04 08:06:25;;;;;;;;;5.00;1.67;;;;;-144.62;100.00;60556.56;5036927;28;45450;-78
2024/01/04 08:08:52;;;;;;;;;9.00;3.00;;;;;-144.62;100.00;60556.56;5034622;27;45471;-77
2024/01/04 08:11:17;;;;;;;;;4.67;2.67;;;;;-144.62;100.00;60556.56;5037680;28;45324;-79
2024/01/04 08:13:43;;;;;;;;;3.67;2.00;;;;;-144.62;100.00;60556.56;5035819;28;45665;-81
2024/01/04 08:16:08;;;;;;;;;3.33;2.00;;;;;-144.62;100.00;60556.56;5038203;28;45242;-79
2024/01/04 08:18:35;;;;;;;;;2.67;2.67;;;;;-144.62;100.00;60556.56;5039669;28;48116;-79
2024/01/04 08:21:01;;;;;;;;;7.00;3.33;;;;;-144.62;100.00;60556.56;5039811;27;45648;-78
2024/01/04 08:23:27;;;;;;;;;6.00;1.00;;;;;-144.62;100.00;60556.56;5038423;28;45424;-79
2024/01/04 08:25:53;;;;;;;;;6.33;4.00;;;;;-144.62;100.00;60556.56;5039648;27;45363;-79
2024/01/04 08:28:18;;;;;;;;;5.33;2.00;;;;;-144.62;100.00;60556.56;5039131;28;47257;-82
2024/01/04 08:30:44;;;;;;;;;4.00;2.00;;;;;-144.62;100.00;60556.56;5040889;28;45549;-78
2024/01/04 08:33:09;;;;;;;;;5.67;2.67;;;;;-144.62;100.00;60556.56;5034954;28;45340;-79
2024/01/04 08:35:35;;;;;;;;;0.00;0.00;;;;;-144.62;100.00;60556.56;5041261;28;45338;-78
2024/01/04 08:38:00;;;;;;;;;8.33;2.33;;;;;-144.62;100.00;60556.56;5036281;28;47432;-80
2024/01/04 08:40:27;;;;;;;;;4.67;2.00;;;;;-144.62;100.00;60556.56;5038581;28;47897;-79
2024/01/04 08:42:52;;;;;;;;;2.67;2.33;;;;;-144.62;100.00;60556.56;5033610;28;45362;-78
2024/01/04 08:45:18;;;;;;;;;6.33;4.00;;;;;-144.62;100.00;60556.56;5037864;27;45450;-78
2024/01/04 08:47:44;;;;;;;;;4.67;3.00;;;;;-144.62;100.00;60556.56;5039553;27;46891;-79
2024/01/04 08:50:09;;;;;;;;;3.67;3.00;;;;;-144.62;100.00;60556.56;5039047;28;45643;-78
2024/01/04 08:52:36;;;;;;;;;5.33;3.00;;;;;-144.62;100.00;60556.56;5035974;28;45674;-78
2024/01/04 08:55:01;;;;;;;;;4.67;2.33;;;;;-144.62;100.00;60556.56;5039029;28;45228;-77
2024/01/04 08:57:27;;;;;;;;;3.00;2.67;;;;;-144.62;100.00;60556.56;5036980;27;46877;-79
2024/01/04 08:59:52;;;;;;;;;5.67;1.33;;;;;-144.62;100.00;60556.56;5029408;28;45311;-78
2024/01/04 09:02:17;;;;;;;;;4.00;4.00;;;;;-144.62;100.00;60556.56;5034134;28;45440;-77
2024/01/04 09:04:43;;;;;;;;;9.33;4.33;;;;;-144.62;100.00;60556.56;5028459;28;45369;-78
2024/01/04 09:07:08;;;;;;;;;7.33;3.00;;;;;-144.62;100.00;60556.56;5030018;28;46352;-79
2024/01/04 09:09:34;;;;;;;;;6.00;4.33;;;;;-144.62;100.00;60556.56;5036765;27;45429;-79
2024/01/04 09:12:00;;;;;;;;;3.00;3.00;;;;;-144.62;100.00;60556.56;5024208;28;45383;-78
2024/01/04 09:14:26;;;;;;;;;4.67;4.00;;;;;-144.62;100.00;60556.56;5039386;27;45575;-78
2024/01/04 09:16:51;;;;;;;;;5.67;4.33;;;;;-144.62;100.00;60556.56;5039706;28;46499;-79
2024/01/04 09:19:18;;;;;;;;;12.33;4.00;;;;;-144.62;100.00;60556.56;5034094;28;45482;-79
2024/01/04 09:21:47;;;;;;;;;5.00;3.33;;;;;-144.62;100.00;60556.56;5039860;28;45418;-80
2024/01/04 09:24:12;;;;;;;;;9.33;3.33;;;;;-144.62;100.00;60556.56;5040471;28;45421;-78
2024/01/04 09:26:42;;;;;;;;;4.33;2.00;;;;;-144.62;100.00;60556.56;5037424;28;46745;-79
2024/01/04 09:29:08;;;;;;;;;5.00;4.33;;;;;-144.62;100.00;60556.56;5035584;28;45449;-79
2024/01/04 09:31:34;;;;;;;;;5.00;2.67;;;;;-144.62;100.00;60556.56;5039577;28;45423;-80
2024/01/04 09:34:00;;;;;;;;;2.67;2.33;;;;;-144.62;100.00;60556.56;5031145;28;45296;-78
2024/01/04 09:36:25;;;;;;;;;11.67;5.67;;;;;-144.62;100.00;60556.56;5039803;28;46770;-78
2024/01/04 09:38:50;;;;;;;;;11.00;5.67;;;;;-144.62;100.00;60556.56;5038143;27;45183;-78
2024/01/04 09:41:26;;;;;;;;;7.00;5.00;;;;;-144.62;100.00;60556.56;5038133;27;45336;-79
2024/01/04 09:43:55;;;;;;;;;10.00;5.00;;;;;-144.62;100.00;60556.56;5030664;28;45212;-80
2024/01/04 09:46:21;;;;;;;;;8.00;3.00;;;;;-144.62;100.00;60556.56;5037289;28;46688;-79
2024/01/04 09:48:59;;;;;;;;;9.00;4.33;;;;;-144.62;100.00;60556.56;5036402;28;46432;-78
2024/01/04 09:51:38;;;;;;;;;5.67;4.00;;;;;-144.62;100.00;60556.56;5037684;28;45235;-78
2024/01/04 09:54:07;;;;;;;;;9.00;4.00;;;;;-144.62;100.00;60556.56;5036403;28;45585;-78
2024/01/04 09:56:50;;;;;;;;;7.33;4.00;;;;;-144.62;100.00;60556.56;5038390;27;45328;-80
2024/01/04 09:59:15;;;;;;;;;3.00;3.00;;;;;-144.62;100.00;60556.56;5028805;27;45451;-78
2024/01/04 10:01:42;;;;;;;;;6.00;4.00;;;;;-144.62;100.00;60556.56;5037408;27;46319;-78
2024/01/04 10:04:12;;;;;;;;;10.67;2.67;;;;;-144.62;100.00;60556.56;5038968;28;45427;-78
2024/01/04 10:06:50;;;;;;;;;4.67;3.67;;;;;-144.62;100.00;60556.56;5036837;28;45438;-78
2024/01/04 10:09:18;;;;;;;;;4.00;4.00;;;;;-144.62;100.00;60556.56;5037279;27;45440;-79
2024/01/04 10:11:59;;;;;;;;;4.33;3.00;;;;;-144.62;100.00;60556.56;5042694;28;45469;-80
2024/01/04 10:14:27;;;;;;;;;19.00;6.33;;;;;-144.62;100.00;60556.56;5039045;27;45513;-80
2024/01/04 10:16:53;;;;;;;;;8.33;3.33;;;;;-144.62;100.00;60556.56;5037770;27;47159;-79
2024/01/04 10:19:19;;;;;;;;;12.33;4.67;;;;;-144.62;100.00;60556.56;5032472;28;45386;-81
2024/01/04 10:21:44;;;;;;;;;5.33;3.00;;;;;-144.62;100.00;60556.56;5039554;28;45306;-78
2024/01/04 10:24:14;;;;;;;;;5.33;2.00;;;;;-144.62;100.00;60556.56;5034178;28;45562;-80
2024/01/04 10:26:42;;;;;;;;;6.00;3.00;;;;;-144.62;100.00;60556.56;5038618;28;46446;-79
2024/01/04 10:29:07;;;;;;;;;3.67;3.67;;;;;-144.62;100.00;60556.56;5035007;28;45325;-79
2024/01/04 10:31:34;;;;;;;;;9.00;7.00;;;;;-144.62;100.00;60556.56;5039305;27;45386;-79
2024/01/04 10:34:00;;;;;;;;;12.67;5.00;;;;;-144.62;100.00;60556.56;5030581;28;45442;-79
2024/01/04 10:36:30;;;;;;;;;9.00;3.67;;;;;-144.62;100.00;60556.56;5038632;28;45379;-80
2024/01/04 10:39:00;;;;;;;;;6.33;5.00;;;;;-144.62;100.00;60556.56;5035252;28;45534;-78
2024/01/04 10:41:28;;;;;;;;;11.67;4.00;;;;;-144.62;100.00;60556.56;5037269;28;45390;-78
2024/01/04 10:44:06;;;;;;;;;5.33;4.33;;;;;-144.62;100.00;60556.56;5037915;28;45252;-79
2024/01/04 10:46:36;;;;;;;;;10.33;4.33;;;;;-144.62;100.00;60556.56;5038432;27;46108;-80
2024/01/04 10:49:02;;;;;;;;;10.67;5.33;;;;;-144.62;100.00;60556.56;5029702;28;45245;-79
2024/01/04 10:51:30;;;;;;;;;5.33;3.67;;;;;-144.62;100.00;60556.56;5038402;28;45232;-80
2024/01/04 10:54:01;;;;;;;;;5.00;5.00;;;;;-144.62;100.00;60556.56;5038093;28;45337;-79
2024/01/04 10:56:32;;;;;;;;;6.33;6.33;;;;;-144.62;100.00;60556.56;5036614;27;47057;-78
2024/01/04 10:58:59;;;;;;;;;9.67;4.67;;;;;-144.62;100.00;60556.56;5034325;28;45370;-82
2024/01/04 11:01:25;;;;;;;;;4.00;4.00;;;;;-144.62;100.00;60556.56;5038017;28;45556;-78
2024/01/04 11:03:54;;;;;;;;;6.33;6.33;;;;;-144.62;100.00;60556.56;5032658;28;45513;-80
2024/01/04 11:06:21;;;;;;;;;3.00;3.00;;;;;-144.62;100.00;60556.56;5034806;27;45375;-79
2024/01/04 11:08:50;;;;;;;;;5.33;4.00;;;;;-144.62;100.00;60556.56;5042852;27;45436;-78
2024/01/04 11:11:18;;;;;;;;;9.67;6.67;;;;;-144.62;100.00;60556.56;5040671;28;44775;-79
2024/01/04 11:13:44;;;;;;;;;10.33;5.67;;;;;-144.62;100.00;60556.56;5042942;27;45466;-79